KMTH/MTH METAR and TAF weather

Enter ICAO airport designator
Station Type Date Time Source
KMTH METAR 2019/08/23 16:53 UTC NOAA

KMTH 231653Z AUTO 34006KT 10SM FEW021 31/24 A2995 RMK AO2 SLP142 T03110244


Station Type Date Time Source
KMTH Decoded METAR 2019/08/23 16:53 UTC NOAA

Station name not available
Aug 23, 2019 - 12:53 PM EDT / 2019.08.23 1653 UTC
Wind: from the NNW (340 degrees) at 7 MPH (6 KT):0
Visibility: 10 mile(s):0
Sky conditions: mostly clear
Temperature: 88.0 F (31.1 C)
Heat index: 98.6 F (37.0 C):1
Dew Point: 75.9 F (24.4 C)
Relative Humidity: 67%
Pressure (altimeter): 29.95 in. Hg (1014 hPa)
ob: KMTH 231653Z AUTO 34006KT 10SM FEW021 31/24 A2995 RMK AO2 SLP142 T03110244
cycle: 17

Station Type Date Time Source
KMTH TAF 2019/08/23 18:42 UTC NOAA

TAF KMTH 231741Z 2318/2418 33006KT P6SM FEW025
FM240100 26005KT P6SM VCSH SCT025
FM240600 22008KT P6SM VCSH SCT025

Example: see airport list